Time;durP1;ratioP1;P1;durP2;ratioP2;P2;SDS_P1;SDS_P2;PMS_P1;PMS_P2;Temp;Humidity;BMP_temperature;BMP_pressure;BME280_temperature;BME280_humidity;BME280_pressure;Samples;Min_cycle;Max_cycle;Signal;HPM_P1;HPM_P2
2021/07/14 00:00:09;;;;;;;9.40;5.42;;;;;;;18.44;100.00;100775.02;1715754;82;21037;-51
2021/07/14 00:02:35;;;;;;;10.68;5.55;;;;;;;18.42;100.00;100775.93;1668770;84;21555;-52
2021/07/14 00:05:10;;;;;;;9.90;4.80;;;;;;;18.41;100.00;100772.91;1701955;83;21512;-53
2021/07/14 00:07:36;;;;;;;9.55;4.15;;;;;;;18.39;100.00;100770.22;1690306;83;20998;-51
2021/07/14 00:10:10;;;;;;;9.05;5.28;;;;;;;18.36;100.00;100778.59;1677900;83;21106;-52
2021/07/14 00:12:46;;;;;;;7.95;4.12;;;;;;;18.35;100.00;100775.59;1687849;85;20929;-54
2021/07/14 00:23:08;;;;;;;6.45;4.72;;;;;;;18.28;100.00;100781.36;1675770;84;21050;-53
2021/07/14 00:25:37;;;;;;;7.20;4.35;;;;;;;18.25;100.00;100784.21;1675652;85;21007;-54
2021/07/14 00:28:04;;;;;;;10.30;4.70;;;;;;;18.25;100.00;100781.45;1738551;80;21077;-51
2021/07/14 00:30:31;;;;;;;6.33;4.03;;;;;;;18.25;100.00;100786.98;1659119;86;21737;-51
2021/07/14 00:32:57;;;;;;;6.80;4.58;;;;;;;18.23;100.00;100790.05;1648167;85;20934;-52
2021/07/14 00:35:23;;;;;;;9.43;4.15;;;;;;;18.23;100.00;100787.28;1710963;80;21095;-53
2021/07/14 00:37:52;;;;;;;10.48;5.78;;;;;;;18.23;100.00;100789.25;1723099;82;21011;-52
2021/07/14 00:40:18;;;;;;;8.75;5.42;;;;;;;18.22;100.00;100781.52;1723291;82;21019;-50
2021/07/14 00:42:46;;;;;;;12.68;5.28;;;;;;;18.22;100.00;100784.83;1728209;81;21054;-53
2021/07/14 00:45:12;;;;;;;11.43;6.20;;;;;;;18.21;100.00;100785.41;1735736;80;20992;-53
2021/07/14 00:47:44;;;;;;;12.73;5.60;;;;;;;18.19;100.00;100786.87;1712768;83;21831;-52
2021/07/14 00:50:08;;;;;;;7.62;4.97;;;;;;;18.15;100.00;100781.73;1722783;82;21034;-52
2021/07/14 00:52:34;;;;;;;9.10;5.17;;;;;;;18.11;100.00;100780.77;1713141;81;20995;-52
2021/07/14 00:55:01;;;;;;;8.23;4.70;;;;;;;18.10;100.00;100783.27;1644201;84;21037;-52
2021/07/14 00:57:29;;;;;;;8.53;4.60;;;;;;;18.05;100.00;100785.61;1639212;87;21055;-52
2021/07/14 00:59:56;;;;;;;8.58;4.67;;;;;;;18.03;100.00;100785.95;1660163;86;21076;-53
2021/07/14 01:02:25;;;;;;;5.92;4.22;;;;;;;18.01;100.00;100782.69;1711862;82;21564;-51
2021/07/14 01:05:13;;;;;;;6.62;4.12;;;;;;;18.01;100.00;100788.22;1674714;83;21066;-53
2021/07/14 01:07:50;;;;;;;10.30;5.05;;;;;;;18.00;100.00;100785.76;1649984;84;21468;-54
2021/07/14 01:10:23;;;;;;;8.90;4.30;;;;;;;17.99;100.00;100784.14;1659869;86;21428;-54
2021/07/14 01:13:10;;;;;;;6.30;3.70;;;;;;;17.97;100.00;100781.69;1675079;83;21020;-53
2021/07/14 01:15:43;;;;;;;5.92;4.03;;;;;;;17.98;100.00;100786.09;1704727;81;21077;-52
2021/07/14 01:18:26;;;;;;;9.55;4.42;;;;;;;17.98;100.00;100788.86;1691147;84;21037;-52
2021/07/14 01:21:24;;;;;;;6.72;3.87;;;;;;;17.96;100.00;100791.12;1613537;84;21119;-53
2021/07/14 01:24:19;;;;;;;7.08;3.40;;;;;;;17.95;100.00;100790.89;1671940;84;21429;-52
2021/07/14 01:27:11;;;;;;;6.87;4.12;;;;;;;17.94;100.00;100785.10;1660917;85;21481;-52
2021/07/14 01:29:50;;;;;;;6.97;4.05;;;;;;;17.94;100.00;100784.29;1639568;83;21476;-52
2021/07/14 01:32:17;;;;;;;6.28;3.83;;;;;;;17.93;100.00;100783.48;1692967;83;21507;-53
2021/07/14 01:34:46;;;;;;;6.45;4.12;;;;;;;17.91;100.00;100789.09;1721508;83;21560;-52
2021/07/14 01:37:15;;;;;;;7.10;4.30;;;;;;;17.88;100.00;100786.40;1720922;82;21011;-53
2021/07/14 01:39:42;;;;;;;5.35;3.90;;;;;;;17.88;100.00;100785.02;1707289;81;21027;-51
2021/07/14 01:42:10;;;;;;;7.12;4.12;;;;;;;17.88;100.00;100786.40;1698161;83;21362;-52
2021/07/14 01:44:37;;;;;;;9.25;3.98;;;;;;;17.88;100.00;100791.09;1698118;83;21026;-52
2021/07/14 01:47:03;;;;;;;7.37;3.65;;;;;;;17.86;100.00;100789.23;1671653;84;21031;-52
2021/07/14 01:49:32;;;;;;;8.95;4.40;;;;;;;17.83;100.00;100795.65;1701219;83;20999;-52
2021/07/14 01:52:06;;;;;;;8.35;4.47;;;;;;;17.80;100.00;100795.45;1718487;83;21028;-50
2021/07/14 01:54:32;;;;;;;6.20;3.75;;;;;;;17.78;100.00;100793.00;1697671;83;21050;-53
2021/07/14 01:56:59;;;;;;;6.72;4.85;;;;;;;17.76;100.00;100793.88;1737491;81;21037;-51
2021/07/14 01:59:27;;;;;;;8.05;4.70;;;;;;;17.77;100.00;100795.50;1693687;83;21045;-53
2021/07/14 02:01:53;;;;;;;8.95;4.28;;;;;;;17.78;100.00;100797.72;1705946;81;21515;-53
2021/07/14 02:04:32;;;;;;;8.30;4.50;;;;;;;17.78;100.00;100799.09;1721770;83;21041;-50
2021/07/14 02:07:12;;;;;;;9.43;5.17;;;;;;;17.78;100.00;100793.57;1721408;81;21011;-52
2021/07/14 02:09:42;;;;;;;6.03;4.03;;;;;;;17.79;100.00;100799.33;1721875;81;21516;-52
2021/07/14 02:12:13;;;;;;;9.30;4.83;;;;;;;17.80;100.00;100803.75;1661632;85;21463;-52
2021/07/14 02:14:48;;;;;;;6.00;4.05;;;;;;;17.79;100.00;100795.19;1662114;86;21101;-53
2021/07/14 02:17:18;;;;;;;5.95;4.17;;;;;;;17.79;100.00;100799.33;1690835;83;21005;-51
2021/07/14 02:19:50;;;;;;;4.33;2.98;;;;;;;17.78;100.00;100797.72;1691910;84;21001;-51
2021/07/14 02:22:16;;;;;;;5.90;3.72;;;;;;;17.78;100.00;100804.62;1690981;84;21006;-51
2021/07/14 02:24:45;;;;;;;6.10;3.45;;;;;;;17.77;100.00;100805.17;1692089;84;21009;-53
2021/07/14 02:27:13;;;;;;;7.00;3.42;;;;;;;17.79;100.00;100806.24;1720109;82;21438;-54
2021/07/14 02:29:41;;;;;;;7.08;3.50;;;;;;;17.80;100.00;100798.22;1720863;82;21004;-52
2021/07/14 02:32:08;;;;;;;4.83;3.80;;;;;;;17.83;100.00;100801.75;1720619;83;21489;-51
2021/07/14 02:34:34;;;;;;;5.42;3.15;;;;;;;17.87;100.00;100805.48;1720260;82;20888;-53
2021/07/14 02:37:03;;;;;;;6.08;3.70;;;;;;;17.91;100.00;100807.86;1720636;83;21020;-51
2021/07/14 02:39:29;;;;;;;8.80;3.83;;;;;;;17.95;100.00;100808.02;1720946;82;21016;-54
2021/07/14 02:42:05;;;;;;;7.08;4.12;;;;;;;17.99;100.00;100813.98;1720174;82;21485;-54
2021/07/14 02:44:39;;;;;;;6.87;4.00;;;;;;;18.05;100.00;100811.88;1720457;82;21016;-51
2021/07/14 02:47:01;;;;;;;5.65;3.80;;;;;;;18.11;100.00;100808.41;1720033;82;21009;-51
2021/07/14 02:49:29;;;;;;;7.83;4.10;;;;;;;18.16;100.00;100811.03;1710042;83;21059;-54
2021/07/14 02:51:55;;;;;;;6.28;2.98;;;;;;;18.22;100.00;100808.34;1720423;83;21039;-52
2021/07/14 02:54:26;;;;;;;7.30;3.83;;;;;;;18.28;100.00;100807.07;1672395;84;21077;-53
2021/07/14 02:57:00;;;;;;;8.25;4.37;;;;;;;18.34;100.00;100808.53;1705685;84;20998;-53
2021/07/14 02:59:29;;;;;;;4.00;3.05;;;;;;;18.41;100.00;100808.87;1706009;84;21472;-53
2021/07/14 03:01:56;;;;;;;6.33;3.42;;;;;;;18.49;100.00;100805.86;1709652;82;21027;-51
2021/07/14 03:04:42;;;;;;;4.70;3.33;;;;;;;18.56;100.00;100810.92;1719126;82;21442;-50
2021/07/14 03:07:08;;;;;;;4.58;3.12;;;;;;;18.63;100.00;100814.02;1690538;83;21845;-54
2021/07/14 03:09:39;;;;;;;7.12;3.67;;;;;;;18.72;100.00;100810.70;1677058;84;21455;-53
2021/07/14 03:12:13;;;;;;;6.30;3.98;;;;;;;18.80;100.00;100814.05;1702945;84;21601;-53
2021/07/14 03:14:56;;;;;;;5.50;3.20;;;;;;;18.89;100.00;100803.80;1715382;83;20932;-50
2021/07/14 03:17:22;;;;;;;5.20;3.52;;;;;;;18.97;100.00;100809.09;1756306;80;21405;-53
2021/07/14 03:19:50;;;;;;;6.78;3.42;;;;;;;19.07;100.00;100811.52;1712468;83;21006;-52
2021/07/14 03:22:17;;;;;;;6.65;3.55;;;;;;;19.15;100.00;100805.71;1691760;83;21073;-53
2021/07/14 03:24:44;;;;;;;7.67;4.60;;;;;;;19.25;100.00;100821.17;1740319;81;21401;-52
2021/07/14 03:27:14;;;;;;;6.35;4.12;;;;;;;19.31;100.00;100817.91;1739980;81;21518;-52
2021/07/14 03:29:40;;;;;;;7.35;3.52;;;;;;;19.37;100.00;100823.28;1722866;82;21502;-51
2021/07/14 03:32:07;;;;;;;5.55;3.60;;;;;;;19.45;100.00;100819.66;1686752;82;21019;-53
2021/07/14 03:34:34;;;;;;;5.00;3.72;;;;;;;19.52;100.00;100821.35;1736776;82;21030;-53
2021/07/14 03:37:06;;;;;;;5.40;3.90;;;;;;;19.59;100.00;100823.05;1729010;82;21010;-54
2021/07/14 03:39:32;;;;;;;5.12;3.25;;;;;;;19.67;100.00;100822.22;1654676;85;21044;-51
2021/07/14 03:41:58;;;;;;;7.05;4.80;;;;;;;19.76;100.00;100827.17;1646448;86;21049;-51
2021/07/14 03:44:25;;;;;;;6.87;3.98;;;;;;;19.87;100.00;100812.93;1674135;85;20964;-53
2021/07/14 03:46:51;;;;;;;5.22;3.40;;;;;;;19.96;100.00;100828.38;1635004;86;21942;-54
2021/07/14 03:49:17;;;;;;;6.03;3.17;;;;;;;20.06;100.00;100829.97;1705383;84;21071;-51
2021/07/14 03:51:44;;;;;;;5.22;3.27;;;;;;;20.15;100.00;100837.68;1654801;84;21005;-50
2021/07/14 03:54:12;;;;;;;6.30;3.98;;;;;;;20.26;100.00;100833.13;1634853;86;21025;-54
2021/07/14 03:56:39;;;;;;;4.90;3.70;;;;;;;20.36;100.00;100827.19;1686777;84;21019;-51
2021/07/14 03:59:05;;;;;;;10.80;4.85;;;;;;;20.48;100.00;100828.66;1674206;85;21474;-51
2021/07/14 04:01:32;;;;;;;6.58;4.10;;;;;;;20.60;100.00;100832.92;1651875;84;21021;-50
2021/07/14 04:03:58;;;;;;;6.67;3.80;;;;;;;20.74;100.00;100833.22;1687002;84;21036;-50
2021/07/14 04:06:27;;;;;;;7.35;4.25;;;;;;;20.87;100.00;100835.48;1674193;85;21005;-53
2021/07/14 04:09:23;;;;;;;7.53;3.58;;;;;;;20.99;100.00;100836.38;1663890;84;21025;-55
2021/07/14 04:11:55;;;;;;;8.30;4.55;;;;;;;21.11;100.00;100827.84;1721956;81;21027;-50
2021/07/14 04:14:23;;;;;;;7.70;4.03;;;;;;;21.25;100.00;100826.97;1661649;86;21066;-50
2021/07/14 04:16:50;;;;;;;8.48;4.90;;;;;;;21.40;100.00;100831.09;1681043;85;21446;-52
2021/07/14 04:19:18;;;;;;;6.17;3.92;;;;;;;21.51;100.00;100836.44;1682011;85;20994;-52
2021/07/14 04:21:45;;;;;;;7.40;4.20;;;;;;;21.65;100.00;100834.73;1771174;79;21513;-51
2021/07/14 04:24:11;;;;;;;7.17;4.40;;;;;;;21.78;100.00;100830.80;1760407;80;21035;-51
2021/07/14 04:26:38;;;;;;;7.22;4.65;;;;;;;21.92;100.00;100831.06;1661776;86;21057;-51
2021/07/14 04:29:05;;;;;;;6.25;4.10;;;;;;;22.08;100.00;100834.75;1659176;86;21034;-52
2021/07/14 04:31:34;;;;;;;7.60;4.35;;;;;;;22.23;100.00;100838.28;1659143;86;21050;-55
2021/07/14 04:34:01;;;;;;;7.83;4.95;;;;;;;22.38;100.00;100834.53;1712335;82;21069;-52
2021/07/14 04:36:27;;;;;;;7.08;4.00;;;;;;;22.54;100.00;100832.66;1661930;84;21039;-52
2021/07/14 04:38:55;;;;;;;7.28;4.08;;;;;;;22.67;100.00;100828.67;1667107;85;21061;-52
2021/07/14 04:41:22;;;;;;;7.45;3.67;;;;;;;22.83;100.00;100838.51;1752869;79;21023;-52
2021/07/14 04:43:48;;;;;;;6.42;3.85;;;;;;;22.97;100.00;100836.70;1733471;82;20984;-59
2021/07/14 04:46:15;;;;;;;7.67;4.33;;;;;;;23.11;100.00;100835.75;1735416;81;21137;-53
2021/07/14 04:48:42;;;;;;;6.80;4.20;;;;;;;23.26;100.00;100836.15;1736235;80;21422;-52
2021/07/14 04:51:10;;;;;;;7.30;3.65;;;;;;;23.42;100.00;100842.58;1734449;80;21027;-53
2021/07/14 04:53:37;;;;;;;6.75;4.12;;;;;;;23.59;100.00;100838.65;1733316;82;21452;-53
2021/07/14 04:56:04;;;;;;;5.90;4.08;;;;;;;23.74;100.00;100834.28;1741043;80;21762;-57
2021/07/14 04:58:32;;;;;;;6.78;4.30;;;;;;;23.87;100.00;100830.22;1737593;82;21033;-53
2021/07/14 05:00:59;;;;;;;5.67;4.00;;;;;;;24.03;100.00;100835.22;1715015;82;20998;-59
2021/07/14 05:03:25;;;;;;;6.80;4.80;;;;;;;24.20;99.60;100831.80;1694294;83;21418;-60
2021/07/14 05:05:52;;;;;;;6.42;4.20;;;;;;;24.38;98.99;100835.00;1710639;83;21690;-60
2021/07/14 05:08:18;;;;;;;6.97;4.40;;;;;;;24.55;98.10;100835.21;1688037;85;21006;-59
2021/07/14 05:10:48;;;;;;;8.05;4.35;;;;;;;24.69;97.27;100835.53;1693611;83;21427;-53
2021/07/14 05:13:16;;;;;;;8.05;4.10;;;;;;;24.84;96.44;100838.84;1706713;83;21050;-53
2021/07/14 05:15:44;;;;;;;5.70;3.75;;;;;;;25.02;95.41;100835.61;1694780;81;21533;-53
2021/07/14 05:18:12;;;;;;;5.65;3.60;;;;;;;25.20;94.47;100836.81;1706085;83;21448;-60
2021/07/14 05:20:39;;;;;;;6.83;4.37;;;;;;;25.39;94.10;100839.34;1688694;83;21013;-60
2021/07/14 05:23:06;;;;;;;6.28;4.33;;;;;;;25.55;93.23;100842.05;1687835;85;21485;-53
2021/07/14 05:25:33;;;;;;;8.20;4.05;;;;;;;25.64;92.46;100840.63;1718446;81;21491;-53
2021/07/14 05:27:59;;;;;;;6.20;4.08;;;;;;;25.78;92.45;100844.84;1705861;83;21440;-59
2021/07/14 05:30:25;;;;;;;5.97;3.70;;;;;;;25.95;91.72;100849.97;1689652;83;21468;-54
2021/07/14 05:32:52;;;;;;;5.35;3.50;;;;;;;26.13;90.84;100850.25;1697930;83;21079;-60
2021/07/14 05:35:18;;;;;;;7.92;4.37;;;;;;;26.31;90.08;100847.72;1722674;83;21019;-53
2021/07/14 05:37:45;;;;;;;6.75;4.25;;;;;;;26.42;88.83;100848.70;1712241;81;21067;-59
2021/07/14 05:40:12;;;;;;;6.50;3.83;;;;;;;26.54;88.28;100848.50;1688351;85;21070;-53
2021/07/14 05:42:39;;;;;;;5.28;3.75;;;;;;;26.67;86.95;100851.08;1688112;84;21014;-54
2021/07/14 05:45:06;;;;;;;6.30;3.95;;;;;;;26.80;86.32;100851.04;1700964;83;21454;-53
2021/07/14 05:47:33;;;;;;;5.55;3.33;;;;;;;26.95;85.42;100850.06;1722020;81;21453;-54
2021/07/14 05:49:59;;;;;;;5.42;3.30;;;;;;;27.12;84.98;100850.63;1694321;83;21461;-53
2021/07/14 05:52:25;;;;;;;6.78;3.40;;;;;;;27.24;84.08;100841.39;1688033;83;21098;-57
2021/07/14 05:54:52;;;;;;;4.28;3.27;;;;;;;27.38;82.51;100849.77;1691871;83;21048;-53
2021/07/14 05:57:19;;;;;;;4.50;3.25;;;;;;;27.47;81.88;100846.63;1687852;83;21007;-58
2021/07/14 05:59:45;;;;;;;4.62;3.12;;;;;;;27.53;80.84;100844.50;1687727;85;21517;-58
2021/07/14 06:02:12;;;;;;;5.00;2.90;;;;;;;27.59;78.68;100843.55;1687787;85;21015;-57
2021/07/14 06:04:38;;;;;;;3.37;2.75;;;;;;;27.66;76.84;100845.02;1687676;85;21417;-58
2021/07/14 06:07:07;;;;;;;3.75;2.75;;;;;;;27.73;76.26;100845.09;1667988;85;21035;-58
2021/07/14 06:09:34;;;;;;;2.70;2.22;;;;;;;27.82;73.54;100841.41;1689174;83;21461;-53
2021/07/14 06:12:00;;;;;;;4.65;3.02;;;;;;;27.91;73.65;100843.06;1672238;85;20995;-53
2021/07/14 06:14:28;;;;;;;4.10;2.58;;;;;;;28.02;73.52;100838.36;1672229;85;21010;-57
2021/07/14 06:16:55;;;;;;;5.70;3.47;;;;;;;28.11;72.74;100837.39;1672030;85;21093;-58
2021/07/14 06:19:21;;;;;;;6.03;2.80;;;;;;;28.22;72.95;100835.48;1672298;85;21041;-53
2021/07/14 06:21:49;;;;;;;5.08;3.35;;;;;;;28.32;72.78;100838.16;1659342;85;21088;-57
2021/07/14 06:24:16;;;;;;;5.62;3.30;;;;;;;28.45;72.76;100836.66;1721028;81;20982;-55
2021/07/14 06:26:44;;;;;;;3.72;2.67;;;;;;;28.61;72.48;100834.13;1721339;83;21068;-53
2021/07/14 06:29:10;;;;;;;6.30;3.42;;;;;;;28.69;72.21;100838.00;1721702;83;21426;-57
2021/07/14 06:31:37;;;;;;;3.62;2.62;;;;;;;28.79;70.99;100839.85;1668848;85;21057;-57
2021/07/14 06:34:03;;;;;;;6.37;2.60;;;;;;;28.84;69.11;100840.87;1709933;83;20993;-53
2021/07/14 06:36:29;;;;;;;3.90;2.55;;;;;;;28.92;70.31;100838.30;1708517;82;21080;-57
2021/07/14 06:39:01;;;;;;;3.70;2.70;;;;;;;29.04;68.96;100836.53;1708668;83;21495;-53
2021/07/14 06:41:24;;;;;;;3.08;2.25;;;;;;;29.17;68.84;100837.61;1708360;83;21018;-53
2021/07/14 06:43:51;;;;;;;3.98;2.80;;;;;;;29.29;69.42;100831.61;1674205;83;21011;-57
2021/07/14 06:46:19;;;;;;;3.65;2.60;;;;;;;29.42;66.58;100837.05;1672117;84;21037;-57
2021/07/14 06:48:46;;;;;;;3.65;2.45;;;;;;;29.52;66.73;100840.48;1744541;81;20989;-52
2021/07/14 06:51:12;;;;;;;3.95;2.62;;;;;;;29.62;66.95;100835.27;1754255;80;20882;-56
2021/07/14 06:53:39;;;;;;;4.22;2.75;;;;;;;29.76;64.99;100837.52;1754593;81;21464;-53
2021/07/14 06:56:05;;;;;;;4.62;3.00;;;;;;;29.88;63.83;100840.55;1750366;80;20986;-53
2021/07/14 06:58:36;;;;;;;3.50;2.67;;;;;;;30.05;63.45;100846.59;1741649;81;20997;-56
2021/07/14 07:01:00;;;;;;;3.47;1.98;;;;;;;30.15;62.43;100840.14;1719100;83;21644;-53
2021/07/14 07:03:26;;;;;;;4.28;2.67;;;;;;;30.24;63.49;100843.33;1742313;81;21568;-54
2021/07/14 07:05:55;;;;;;;4.22;2.33;;;;;;;30.36;61.41;100838.70;1735552;80;21491;-53
2021/07/14 07:08:21;;;;;;;4.10;2.62;;;;;;;30.53;60.75;100844.72;1751004;81;20966;-57
2021/07/14 07:10:49;;;;;;;4.10;2.37;;;;;;;30.62;59.35;100838.05;1760488;79;20990;-54
2021/07/14 07:13:16;;;;;;;2.45;2.25;;;;;;;30.64;59.63;100841.27;1737016;81;20998;-54
2021/07/14 07:15:43;;;;;;;3.65;2.35;;;;;;;30.64;59.83;100838.45;1743161;80;21424;-54
2021/07/14 07:18:10;;;;;;;3.65;2.30;;;;;;;30.66;59.60;100833.18;1736775;82;21025;-56
2021/07/14 07:20:36;;;;;;;4.55;2.72;;;;;;;30.69;58.36;100839.44;1735495;82;20998;-53
2021/07/14 07:23:03;;;;;;;3.25;2.33;;;;;;;30.68;58.90;100839.22;1688880;83;21077;-53
2021/07/14 07:25:29;;;;;;;3.47;2.58;;;;;;;30.73;59.46;100839.41;1658532;86;21453;-53
2021/07/14 07:27:59;;;;;;;2.95;2.37;;;;;;;30.77;57.39;100835.38;1703778;83;20994;-56
2021/07/14 07:30:24;;;;;;;3.70;2.37;;;;;;;30.74;56.70;100836.20;1703732;84;21582;-56
2021/07/14 07:32:50;;;;;;;2.50;1.92;;;;;;;30.65;56.21;100835.81;1703895;82;21013;-54
2021/07/14 07:35:17;;;;;;;2.12;1.92;;;;;;;30.64;56.03;100835.63;1704255;84;20986;-54
2021/07/14 07:37:44;;;;;;;6.22;2.72;;;;;;;30.71;58.28;100830.55;1733640;81;21504;-55
2021/07/14 07:40:11;;;;;;;3.27;2.17;;;;;;;30.89;58.36;100833.36;1665102;85;21052;-53
2021/07/14 07:42:40;;;;;;;3.20;2.35;;;;;;;31.01;56.82;100834.27;1654699;86;21055;-56
2021/07/14 07:45:09;;;;;;;3.62;2.50;;;;;;;31.11;55.37;100839.09;1660946;85;21012;-54
2021/07/14 07:47:36;;;;;;;3.70;2.60;;;;;;;31.17;55.82;100830.98;1683894;85;21043;-54
2021/07/14 07:50:05;;;;;;;2.80;2.20;;;;;;;31.21;55.83;100828.95;1684061;84;21497;-53
2021/07/14 07:52:31;;;;;;;3.27;2.10;;;;;;;31.29;55.96;100819.22;1663667;85;21079;-53
2021/07/14 07:55:00;;;;;;;2.40;2.00;;;;;;;31.41;54.12;100826.44;1685062;83;21043;-56
2021/07/14 07:57:28;;;;;;;4.37;2.10;;;;;;;31.42;55.16;100818.95;1683972;85;21859;-55
2021/07/14 07:59:55;;;;;;;2.83;1.77;;;;;;;31.52;54.47;100827.15;1683983;85;21631;-53
2021/07/14 08:02:21;;;;;;;2.83;2.20;;;;;;;31.59;52.61;100823.48;1689754;83;21627;-55
2021/07/14 08:04:49;;;;;;;3.22;2.20;;;;;;;31.62;52.14;100820.61;1683867;85;21032;-55
2021/07/14 08:07:16;;;;;;;3.83;2.25;;;;;;;31.64;54.27;100820.20;1679563;85;21080;-56
2021/07/14 08:09:42;;;;;;;2.77;2.00;;;;;;;31.75;53.49;100818.70;1675223;84;21384;-54
2021/07/14 08:12:09;;;;;;;3.35;1.92;;;;;;;31.90;52.99;100812.53;1738436;82;20990;-56
2021/07/14 08:14:37;;;;;;;4.28;2.35;;;;;;;32.13;52.25;100815.38;1704335;83;21009;-53
2021/07/14 08:17:05;;;;;;;2.72;2.17;;;;;;;32.30;49.83;100816.41;1690682;82;20975;-53
2021/07/14 08:19:31;;;;;;;2.75;2.25;;;;;;;32.41;50.67;100811.42;1733366;82;21363;-54
2021/07/14 08:21:58;;;;;;;3.12;2.10;;;;;;;32.63;50.87;100813.42;1742005;82;21901;-54
2021/07/14 08:24:25;;;;;;;4.55;2.25;;;;;;;32.84;50.65;100810.95;1739265;82;21446;-55
2021/07/14 08:26:52;;;;;;;3.55;2.30;;;;;;;33.05;49.62;100810.50;1738603;80;21038;-53
2021/07/14 08:29:18;;;;;;;5.55;3.02;;;;;;;33.20;47.11;100807.64;1735104;81;21003;-52
2021/07/14 08:31:46;;;;;;;3.72;2.55;;;;;;;33.23;46.61;100811.03;1733120;80;21051;-53
2021/07/14 08:34:12;;;;;;;3.52;2.50;;;;;;;33.34;45.71;100812.30;1724560;81;21574;-55
2021/07/14 08:36:39;;;;;;;3.52;2.50;;;;;;;33.52;45.61;100812.02;1728694;81;21624;-53
2021/07/14 08:39:05;;;;;;;3.00;2.52;;;;;;;33.69;44.77;100809.54;1724886;82;21402;-53
2021/07/14 08:41:32;;;;;;;2.70;2.08;;;;;;;33.65;44.63;100801.70;1729619;81;21483;-56
2021/07/14 08:43:59;;;;;;;3.02;2.37;;;;;;;33.63;45.41;100809.83;1725185;83;21009;-55
2021/07/14 08:46:25;;;;;;;5.65;2.83;;;;;;;33.69;43.74;100802.45;1726637;81;21844;-52
2021/07/14 08:48:52;;;;;;;3.65;2.42;;;;;;;33.72;44.49;100804.42;1735328;81;21000;-54
2021/07/14 08:51:18;;;;;;;2.52;2.33;;;;;;;33.62;44.30;100805.41;1728405;82;21005;-55
2021/07/14 08:53:47;;;;;;;3.25;2.30;;;;;;;33.58;44.00;100795.56;1736398;82;21019;-55
2021/07/14 08:56:14;;;;;;;2.45;2.25;;;;;;;33.64;45.15;100795.87;1736404;82;21031;-53
2021/07/14 08:58:40;;;;;;;2.12;1.90;;;;;;;33.81;44.69;100797.59;1729866;81;21032;-55
2021/07/14 09:01:06;;;;;;;3.45;2.42;;;;;;;34.00;45.22;100796.64;1689763;83;21021;-54
2021/07/14 09:03:33;;;;;;;3.10;2.15;;;;;;;34.20;45.13;100797.53;1736437;82;21015;-55
2021/07/14 09:05:59;;;;;;;2.62;1.95;;;;;;;34.31;42.80;100794.48;1730786;81;20985;-53
2021/07/14 09:08:27;;;;;;;3.22;2.42;;;;;;;34.36;42.30;100798.84;1712468;82;21445;-54
2021/07/14 09:10:55;;;;;;;2.45;2.00;;;;;;;34.43;43.23;100797.30;1695022;83;20990;-55
2021/07/14 09:13:34;;;;;;;2.87;2.50;;;;;;;34.58;42.34;100801.44;1691377;84;21461;-54
2021/07/14 09:16:02;;;;;;;3.47;2.40;;;;;;;34.68;42.45;100796.80;1739085;80;21034;-55
2021/07/14 09:18:29;;;;;;;2.65;2.27;;;;;;;34.63;41.30;100795.28;1724830;81;21437;-54
2021/07/14 09:20:58;;;;;;;5.08;2.45;;;;;;;34.60;43.82;100793.32;1690139;83;20970;-54
2021/07/14 09:23:30;;;;;;;2.15;1.95;;;;;;;34.75;43.31;100791.61;1691349;84;21035;-53
2021/07/14 09:26:04;;;;;;;2.67;1.82;;;;;;;34.79;43.03;100792.31;1687183;83;21408;-54
2021/07/14 09:28:33;;;;;;;2.15;1.95;;;;;;;34.90;44.29;100792.89;1736142;82;21015;-54
2021/07/14 09:31:06;;;;;;;1.90;1.77;;;;;;;35.12;43.98;100793.23;1736333;82;21451;-53
2021/07/14 09:33:32;;;;;;;2.55;2.35;;;;;;;35.29;43.37;100793.44;1734618;81;21095;-53
2021/07/14 09:36:01;;;;;;;2.87;2.22;;;;;;;35.21;38.99;100793.41;1690884;83;21016;-53
2021/07/14 09:38:30;;;;;;;2.98;2.40;;;;;;;34.89;38.76;100794.94;1691414;84;21000;-53
2021/07/14 09:41:04;;;;;;;3.12;1.85;;;;;;;34.71;42.36;100793.70;1737250;80;21020;-53
2021/07/14 09:43:42;;;;;;;4.10;2.25;;;;;;;34.74;41.84;100794.25;1772123;80;21494;-54
2021/07/14 09:46:12;;;;;;;3.10;2.47;;;;;;;34.72;41.07;100792.45;1754146;80;21024;-54
2021/07/14 09:48:43;;;;;;;2.75;2.17;;;;;;;34.38;41.57;100798.59;1736481;82;21054;-54
2021/07/14 09:51:19;;;;;;;2.33;2.00;;;;;;;34.27;43.31;100799.41;1738991;82;21062;-54
2021/07/14 09:53:53;;;;;;;3.42;2.30;;;;;;;34.42;43.42;100799.34;1726747;81;21063;-54
2021/07/14 09:56:26;;;;;;;3.72;2.30;;;;;;;34.58;41.91;100793.55;1695334;83;21013;-53
2021/07/14 09:59:11;;;;;;;2.95;2.60;;;;;;;34.70;42.19;100789.28;1691155;84;21047;-53
2021/07/14 10:01:45;;;;;;;3.27;2.50;;;;;;;34.82;41.09;100788.62;1733046;80;21421;-53
2021/07/14 10:04:13;;;;;;;3.30;2.40;;;;;;;34.75;41.64;100783.88;1735826;82;21008;-52
2021/07/14 10:06:39;;;;;;;3.25;2.80;;;;;;;34.67;41.29;100788.91;1735906;80;21008;-53
2021/07/14 10:09:07;;;;;;;4.42;2.72;;;;;;;34.57;41.82;100788.50;1676669;83;21050;-54
2021/07/14 10:11:34;;;;;;;3.47;2.50;;;;;;;34.42;42.11;100787.16;1722763;81;21063;-52
2021/07/14 10:14:04;;;;;;;3.90;2.95;;;;;;;34.29;43.12;100778.52;1732411;82;20945;-53
2021/07/14 10:16:41;;;;;;;3.37;2.60;;;;;;;34.22;43.12;100782.31;1732447;81;21023;-53
2021/07/14 10:19:13;;;;;;;3.50;3.05;;;;;;;34.07;43.77;100782.34;1738554;82;21035;-52
2021/07/14 10:21:48;;;;;;;2.92;2.58;;;;;;;33.91;43.49;100782.25;1741481;82;21035;-54
2021/07/14 10:24:19;;;;;;;3.50;2.42;;;;;;;33.82;43.84;100778.55;1741271;82;21556;-53
2021/07/14 10:26:49;;;;;;;4.03;3.05;;;;;;;33.86;44.30;100775.67;1741196;82;21051;-54
2021/07/14 10:29:19;;;;;;;3.42;3.10;;;;;;;33.96;43.00;100781.13;1737509;82;21034;-53
2021/07/14 10:31:48;;;;;;;3.85;3.10;;;;;;;33.90;44.51;100782.05;1741493;82;21464;-55
2021/07/14 10:34:15;;;;;;;3.52;2.55;;;;;;;33.91;43.50;100783.67;1741305;82;21034;-55
2021/07/14 10:36:41;;;;;;;3.33;2.52;;;;;;;33.96;42.68;100783.17;1683326;83;21418;-54
2021/07/14 10:39:17;;;;;;;2.77;2.47;;;;;;;34.07;43.17;100782.34;1680798;83;21033;-54
2021/07/14 10:41:44;;;;;;;7.83;2.50;;;;;;;34.35;43.28;100783.05;1718785;80;20972;-55
2021/07/14 10:44:10;;;;;;;2.85;2.40;;;;;;;34.67;41.77;100781.83;1739271;81;21543;-54
2021/07/14 10:46:38;;;;;;;4.17;2.90;;;;;;;34.80;42.20;100775.48;1738198;82;21466;-54
2021/07/14 10:49:07;;;;;;;4.17;2.75;;;;;;;34.87;42.47;100777.53;1726613;82;21015;-54
2021/07/14 10:51:36;;;;;;;3.02;2.75;;;;;;;34.92;42.96;100776.22;1674069;84;21005;-53
2021/07/14 10:54:05;;;;;;;2.75;2.40;;;;;;;35.00;43.11;100777.65;1712630;83;20977;-53
2021/07/14 10:56:44;;;;;;;4.05;2.62;;;;;;;35.19;42.18;100776.63;1717510;82;21443;-53
2021/07/14 10:59:10;;;;;;;3.27;2.35;;;;;;;35.31;42.61;100776.76;1730360;82;21036;-53
2021/07/14 11:01:50;;;;;;;3.40;2.50;;;;;;;35.32;41.42;100778.97;1734028;80;21026;-53
2021/07/14 11:04:32;;;;;;;3.42;2.87;;;;;;;35.07;41.48;100776.06;1722440;81;21554;-54
2021/07/14 11:07:06;;;;;;;;;;;;;;;34.71;41.50;100771.01;1682325;84;21016;-53
2021/07/14 11:09:46;;;;;;;3.17;2.45;;;;;;;34.45;42.72;100767.25;1683332;84;20148;-53
2021/07/14 11:12:16;;;;;;;3.90;2.33;;;;;;;34.27;42.27;100772.47;1702887;82;21061;-52
2021/07/14 11:14:49;;;;;;;3.05;2.22;;;;;;;34.25;42.88;100772.13;1705002;84;21003;-54
2021/07/14 11:17:16;;;;;;;2.75;2.50;;;;;;;34.31;42.97;100769.58;1716653;80;20976;-52
2021/07/14 11:19:53;;;;;;;3.42;2.42;;;;;;;34.32;43.52;100772.58;1680594;85;21081;-52
2021/07/14 11:22:41;;;;;;;3.55;2.40;;;;;;;34.48;42.42;100765.58;1729157;81;20977;-52
2021/07/14 11:25:24;;;;;;;3.12;2.60;;;;;;;34.70;42.56;100766.58;1725671;83;20996;-51
2021/07/14 11:28:02;;;;;;;4.30;2.77;;;;;;;34.97;42.54;100769.23;1726158;81;21133;-54
2021/07/14 11:30:43;;;;;;;3.12;2.60;;;;;;;35.24;41.51;100768.41;1732682;82;21048;-53
2021/07/14 11:33:12;;;;;;;3.05;2.20;;;;;;;35.55;40.49;100766.63;1735778;82;21441;-54
2021/07/14 11:35:55;;;;;;;3.80;2.33;;;;;;;35.67;39.82;100771.63;1735629;82;21039;-54
2021/07/14 11:38:33;;;;;;;3.20;2.58;;;;;;;35.75;39.43;100767.97;1748187;81;21004;-55